Time;durP1;ratioP1;P1;durP2;ratioP2;P2;SDS_P1;SDS_P2;PMS_P1;PMS_P2;Temp;Humidity;BMP_temperature;BMP_pressure;BME280_temperature;BME280_humidity;BME280_pressure;Samples;Min_cycle;Max_cycle;Signal;HPM_P1;HPM_P2
2023/04/16 00:01:25;;;;;;;50.35;26.08;;;9.60;99.90;;;;;;6069244;23;92302;-79
2023/04/16 00:03:52;;;;;;;65.38;29.55;;;9.50;99.90;;;;;;6095287;23;92425;-79
2023/04/16 00:06:19;;;;;;;49.67;24.35;;;9.50;99.90;;;;;;6067662;23;95639;-80
2023/04/16 00:08:46;;;;;;;58.25;27.40;;;9.50;99.90;;;;;;6094412;23;96040;-80
2023/04/16 00:11:13;;;;;;;66.90;29.23;;;9.60;99.90;;;;;;6044587;23;92404;-80
2023/04/16 00:13:40;;;;;;;66.05;30.42;;;9.60;99.90;;;;;;6094879;23;99146;-80
2023/04/16 00:16:07;;;;;;;63.88;28.13;;;9.60;99.90;;;;;;6068869;23;95719;-80
2023/04/16 00:18:34;;;;;;;61.05;30.45;;;9.60;99.90;;;;;;6094869;23;92437;-80
2023/04/16 00:21:01;;;;;;;64.43;29.70;;;9.50;99.90;;;;;;6069425;23;92716;-80
2023/04/16 00:23:28;;;;;;;61.53;26.25;;;9.60;99.90;;;;;;6069153;23;91567;-80
2023/04/16 00:25:58;;;;;;;56.03;25.25;;;9.50;99.90;;;;;;6044761;23;95973;-80
2023/04/16 00:28:26;;;;;;;62.08;27.60;;;9.50;99.90;;;;;;6094745;23;93133;-80
2023/04/16 00:30:54;;;;;;;56.97;26.48;;;9.50;99.90;;;;;;6067224;23;94834;-80
2023/04/16 00:33:21;;;;;;;63.58;27.98;;;9.50;99.90;;;;;;6069061;23;92465;-80
2023/04/16 00:35:50;;;;;;;63.28;28.40;;;9.50;99.90;;;;;;6044705;23;95797;-79
2023/04/16 00:38:17;;;;;;;49.20;23.30;;;9.50;99.90;;;;;;6094656;23;92846;-80
2023/04/16 00:40:44;;;;;;;58.42;28.92;;;9.40;99.90;;;;;;6068843;23;92426;-79
2023/04/16 00:43:18;;;;;;;60.88;27.60;;;9.40;99.90;;;;;;6068584;23;103259;-80
2023/04/16 00:45:46;;;;;;;64.55;27.85;;;9.40;99.90;;;;;;6068822;23;95856;-79
2023/04/16 00:48:13;;;;;;;56.95;26.63;;;9.40;99.90;;;;;;6095320;23;92940;-80
2023/04/16 00:50:40;;;;;;;59.40;28.48;;;9.40;99.90;;;;;;6095158;23;92381;-79
2023/04/16 00:53:07;;;;;;;48.78;21.98;;;9.30;99.90;;;;;;6069272;23;92492;-79
2023/04/16 00:55:35;;;;;;;65.57;27.40;;;9.40;99.90;;;;;;6066890;23;99629;-80
2023/04/16 00:58:03;;;;;;;67.25;28.25;;;9.30;99.90;;;;;;6044286;23;98145;-79
2023/04/16 01:00:30;;;;;;;80.13;27.75;;;9.30;99.90;;;;;;6044384;23;92472;-79
2023/04/16 01:02:59;;;;;;;69.38;28.88;;;9.30;99.90;;;;;;6095250;23;92819;-79
2023/04/16 01:05:26;;;;;;;99.03;29.60;;;9.30;99.90;;;;;;6043964;23;93455;-79
2023/04/16 01:07:57;;;;;;;69.75;28.60;;;9.30;99.90;;;;;;6044388;23;94437;-79
2023/04/16 01:10:24;;;;;;;80.35;28.00;;;9.30;99.90;;;;;;6094974;23;92860;-79
2023/04/16 01:12:50;;;;;;;85.75;30.17;;;9.20;99.90;;;;;;6045032;23;91730;-79
2023/04/16 01:15:18;;;;;;;62.25;25.10;;;9.20;99.90;;;;;;6094975;23;92934;-79
2023/04/16 01:17:45;;;;;;;64.10;24.63;;;9.20;99.90;;;;;;6094655;23;92961;-79
2023/04/16 01:20:12;;;;;;;89.35;28.25;;;9.20;99.90;;;;;;6067583;23;94756;-79
2023/04/16 01:22:39;;;;;;;106.95;29.23;;;9.20;99.90;;;;;;6044075;23;95699;-79
2023/04/16 01:25:06;;;;;;;119.32;28.23;;;9.10;99.90;;;;;;6068378;23;95579;-80
2023/04/16 01:27:33;;;;;;;114.40;27.33;;;9.10;99.90;;;;;;6094368;23;92984;-80
2023/04/16 01:30:00;;;;;;;97.65;27.42;;;9.10;99.90;;;;;;6068440;23;92487;-79
2023/04/16 01:32:38;;;;;;;78.07;27.90;;;9.00;99.90;;;;;;6046481;23;92389;-79
2023/04/16 01:35:05;;;;;;;84.60;24.38;;;9.00;99.90;;;;;;6044279;23;95808;-79
2023/04/16 01:37:33;;;;;;;78.07;27.48;;;9.00;99.90;;;;;;6069050;23;93210;-79
2023/04/16 01:40:00;;;;;;;86.03;30.02;;;9.00;99.90;;;;;;6044451;23;92452;-79
2023/04/16 01:42:27;;;;;;;68.90;26.10;;;8.90;99.90;;;;;;6044268;23;92413;-79
2023/04/16 01:44:54;;;;;;;79.68;30.63;;;8.90;99.90;;;;;;6066794;23;98594;-79
2023/04/16 01:47:21;;;;;;;61.83;24.63;;;8.90;99.90;;;;;;6043854;23;98049;-80
2023/04/16 01:49:48;;;;;;;81.68;27.38;;;9.00;99.90;;;;;;6068436;23;92463;-79
2023/04/16 01:52:15;;;;;;;75.18;29.05;;;9.00;99.90;;;;;;6044443;23;92439;-79
2023/04/16 01:54:42;;;;;;;95.00;30.15;;;8.90;99.90;;;;;;6068099;23;95878;-79
2023/04/16 01:57:10;;;;;;;96.75;29.40;;;8.90;99.90;;;;;;6044149;23;96023;-79
2023/04/16 01:59:36;;;;;;;79.65;24.88;;;8.90;99.90;;;;;;6068076;23;92500;-79
2023/04/16 02:02:11;;;;;;;94.55;27.17;;;8.90;99.90;;;;;;6068842;23;92079;-79
2023/04/16 02:04:40;;;;;;;119.23;33.53;;;8.90;99.90;;;;;;6068171;23;95760;-79
2023/04/16 02:07:07;;;;;;;109.75;33.03;;;8.90;99.90;;;;;;6043791;23;95595;-79
2023/04/16 02:09:39;;;;;;;88.90;30.75;;;8.80;99.90;;;;;;6042473;23;95377;-79
2023/04/16 02:12:08;;;;;;;108.10;31.27;;;8.80;99.90;;;;;;6068461;23;92435;-79
2023/04/16 02:14:35;;;;;;;96.28;30.98;;;8.80;99.90;;;;;;6068621;23;92416;-80
2023/04/16 02:17:02;;;;;;;104.80;27.80;;;8.80;99.90;;;;;;6067958;23;95334;-79
2023/04/16 02:19:36;;;;;;;97.15;31.95;;;8.80;99.90;;;;;;6045385;23;92498;-79
2023/04/16 02:22:04;;;;;;;98.00;32.40;;;8.90;99.90;;;;;;6044195;23;92487;-79
2023/04/16 02:24:31;;;;;;;85.43;30.80;;;8.90;99.90;;;;;;6068240;23;92935;-80
2023/04/16 02:27:01;;;;;;;105.22;33.78;;;8.90;99.90;;;;;;6044721;23;94101;-79
2023/04/16 02:29:28;;;;;;;134.70;36.95;;;8.90;99.90;;;;;;6067730;23;93111;-79
2023/04/16 02:32:03;;;;;;;77.55;30.63;;;8.90;99.90;;;;;;6068829;23;92553;-79
2023/04/16 02:34:33;;;;;;;83.15;32.55;;;8.90;99.90;;;;;;6043326;23;98067;-79
2023/04/16 02:37:00;;;;;;;79.00;31.83;;;8.90;99.90;;;;;;6045040;23;97765;-79
2023/04/16 02:39:27;;;;;;;82.72;32.97;;;9.00;99.90;;;;;;6045297;23;92495;-79
2023/04/16 02:41:55;;;;;;;75.78;32.80;;;9.00;99.90;;;;;;6045358;23;92511;-79
2023/04/16 02:44:21;;;;;;;83.78;29.98;;;9.00;99.90;;;;;;6044996;23;95755;-79
2023/04/16 02:46:48;;;;;;;84.53;34.90;;;9.00;99.90;;;;;;6069116;23;95475;-80
2023/04/16 02:49:15;;;;;;;84.22;33.25;;;9.00;99.90;;;;;;6045096;23;92407;-79
2023/04/16 02:51:42;;;;;;;79.97;32.67;;;9.00;99.90;;;;;;6069477;23;91767;-80
2023/04/16 02:54:09;;;;;;;72.55;30.15;;;9.00;99.90;;;;;;6044914;23;95875;-79
2023/04/16 02:56:36;;;;;;;73.10;32.35;;;9.00;99.90;;;;;;6068988;23;95372;-79
2023/04/16 02:59:04;;;;;;;66.43;31.80;;;9.00;99.90;;;;;;6043720;23;94821;-80
2023/04/16 03:01:31;;;;;;;65.00;30.67;;;9.00;99.90;;;;;;6069209;23;93215;-79
2023/04/16 03:03:58;;;;;;;76.38;31.40;;;9.00;99.90;;;;;;6044919;23;95709;-79
2023/04/16 03:06:25;;;;;;;66.68;31.40;;;9.00;99.90;;;;;;6069119;23;95824;-79
2023/04/16 03:08:53;;;;;;;59.33;29.38;;;9.00;99.90;;;;;;6095200;23;92380;-80
2023/04/16 03:11:20;;;;;;;53.58;26.75;;;9.00;99.90;;;;;;6069255;23;92539;-79
2023/04/16 03:13:47;;;;;;;66.25;33.97;;;9.00;99.90;;;;;;6069322;23;93210;-79
2023/04/16 03:16:14;;;;;;;65.47;30.08;;;9.00;99.90;;;;;;6045379;23;95446;-79
2023/04/16 03:18:41;;;;;;;61.25;29.45;;;9.00;99.90;;;;;;6068890;23;92514;-79
2023/04/16 03:21:08;;;;;;;61.65;30.67;;;9.00;99.90;;;;;;6069370;23;92843;-80
2023/04/16 03:23:37;;;;;;;60.60;30.08;;;9.00;99.90;;;;;;6093536;23;95624;-80
2023/04/16 03:26:04;;;;;;;66.32;30.73;;;9.00;99.90;;;;;;6095227;23;95406;-79
2023/04/16 03:28:31;;;;;;;70.28;32.75;;;9.00;99.90;;;;;;6069105;23;92909;-80
2023/04/16 03:30:58;;;;;;;58.30;30.80;;;9.10;99.90;;;;;;6044635;23;92467;-79
2023/04/16 03:33:25;;;;;;;54.15;23.27;;;9.00;99.90;;;;;;6068968;23;95946;-79
2023/04/16 03:35:57;;;;;;;64.90;29.67;;;9.00;99.90;;;;;;6068601;23;95589;-79
2023/04/16 03:38:26;;;;;;;69.07;29.98;;;9.10;99.90;;;;;;6069332;23;92453;-80
2023/04/16 03:40:55;;;;;;;67.40;31.73;;;9.00;99.90;;;;;;6045448;23;91840;-79
2023/04/16 03:43:22;;;;;;;64.93;31.83;;;9.00;99.90;;;;;;6044166;23;95469;-79
2023/04/16 03:45:50;;;;;;;56.47;29.42;;;9.10;99.90;;;;;;6044436;23;95055;-80
2023/04/16 03:48:20;;;;;;;68.20;30.35;;;9.10;99.90;;;;;;6067701;23;94870;-79
2023/04/16 03:50:47;;;;;;;60.22;29.10;;;9.10;99.90;;;;;;6068922;23;92349;-79
2023/04/16 03:53:16;;;;;;;53.67;27.88;;;9.10;99.90;;;;;;6045043;23;95659;-79
2023/04/16 03:55:44;;;;;;;67.35;29.60;;;9.10;99.90;;;;;;6044637;23;95445;-79
2023/04/16 03:58:11;;;;;;;60.40;29.60;;;9.10;99.90;;;;;;6069183;23;92511;-79
2023/04/16 04:00:42;;;;;;;61.55;31.13;;;9.10;99.90;;;;;;6069120;23;92453;-79
2023/04/16 04:03:15;;;;;;;67.45;31.85;;;9.10;99.90;;;;;;6045653;23;95443;-79
2023/04/16 04:05:44;;;;;;;65.35;31.67;;;9.10;99.90;;;;;;6069278;23;95305;-79
2023/04/16 04:08:13;;;;;;;71.55;34.00;;;9.10;99.90;;;;;;6045275;23;92811;-79
2023/04/16 04:10:41;;;;;;;72.90;34.47;;;9.20;99.90;;;;;;6068758;23;92446;-79
2023/04/16 04:13:10;;;;;;;79.10;35.03;;;9.20;99.90;;;;;;6067174;23;97781;-80
2023/04/16 04:15:37;;;;;;;65.75;31.45;;;9.20;99.90;;;;;;6044612;23;97855;-79
2023/04/16 04:18:04;;;;;;;85.65;34.05;;;9.20;99.90;;;;;;6068690;23;92391;-79
2023/04/16 04:20:31;;;;;;;74.30;33.05;;;9.20;99.90;;;;;;6069022;23;92416;-80
2023/04/16 04:22:58;;;;;;;64.22;30.77;;;9.30;99.90;;;;;;6044613;23;94727;-79
2023/04/16 04:25:26;;;;;;;67.20;30.40;;;9.30;99.90;;;;;;6068753;23;95080;-79
2023/04/16 04:27:53;;;;;;;61.58;30.75;;;9.30;99.90;;;;;;6044548;23;92374;-79
2023/04/16 04:30:20;;;;;;;62.95;30.65;;;9.30;99.90;;;;;;6068988;23;91709;-79
2023/04/16 04:32:47;;;;;;;73.90;32.58;;;9.30;99.90;;;;;;6068635;23;95581;-79
2023/04/16 04:35:15;;;;;;;69.18;32.20;;;9.30;99.90;;;;;;6044562;23;96003;-79
2023/04/16 04:37:42;;;;;;;67.80;32.83;;;9.30;99.90;;;;;;6092065;23;94894;-79
2023/04/16 04:40:16;;;;;;;;;;;9.30;99.90;;;;;;6069636;23;92415;-79
2023/04/16 04:42:43;;;;;;;70.05;31.42;;;9.10;99.90;;;;;;6046753;23;95494;-79
2023/04/16 04:45:11;;;;;;;66.13;31.58;;;9.10;99.90;;;;;;6044665;23;95222;-79
2023/04/16 04:47:39;;;;;;;64.20;30.70;;;9.20;99.90;;;;;;6045199;23;93426;-79
2023/04/16 04:50:07;;;;;;;58.75;29.77;;;9.20;99.90;;;;;;6068615;23;92927;-79
2023/04/16 04:52:34;;;;;;;65.63;29.88;;;9.20;99.90;;;;;;6068660;23;95538;-79
2023/04/16 04:55:02;;;;;;;71.82;31.25;;;9.20;99.90;;;;;;6068463;23;95210;-79
2023/04/16 04:57:29;;;;;;;68.07;30.77;;;9.10;99.90;;;;;;6044744;23;92496;-80
2023/04/16 04:59:56;;;;;;;59.88;30.23;;;9.10;99.90;;;;;;6068398;23;92476;-80
2023/04/16 05:02:30;;;;;;;64.70;32.15;;;9.10;99.90;;;;;;6044274;23;96618;-80
2023/04/16 05:04:57;;;;;;;67.65;31.63;;;9.10;99.90;;;;;;6094640;23;95413;-79
2023/04/16 05:07:25;;;;;;;69.53;32.50;;;9.10;99.90;;;;;;6069240;23;92423;-79
2023/04/16 05:09:52;;;;;;;65.05;31.58;;;9.10;99.90;;;;;;6068915;23;92465;-79
2023/04/16 05:12:19;;;;;;;65.55;31.02;;;9.10;99.90;;;;;;6044599;23;96088;-79
2023/04/16 05:14:46;;;;;;;61.78;31.52;;;9.10;99.90;;;;;;6094247;23;106693;-80
2023/04/16 05:17:13;;;;;;;62.47;31.17;;;9.20;99.90;;;;;;6069108;23;92367;-80
2023/04/16 05:19:40;;;;;;;59.67;28.15;;;9.10;99.90;;;;;;6069578;23;91669;-80
2023/04/16 05:22:07;;;;;;;55.28;29.70;;;9.10;99.90;;;;;;6044180;23;95613;-80
2023/04/16 05:24:34;;;;;;;61.47;31.42;;;9.20;99.90;;;;;;6094780;23;92922;-79
2023/04/16 05:27:01;;;;;;;59.70;29.40;;;9.10;99.90;;;;;;6066966;23;94851;-80
2023/04/16 05:29:27;;;;;;;55.58;29.98;;;9.20;99.90;;;;;;6094856;23;92383;-80
2023/04/16 05:31:55;;;;;;;53.63;29.20;;;9.20;99.90;;;;;;6068380;23;95841;-79
2023/04/16 05:34:22;;;;;;;46.67;26.90;;;9.30;99.90;;;;;;6068866;23;92338;-80
2023/04/16 05:36:49;;;;;;;48.80;28.10;;;9.40;99.90;;;;;;6068145;23;100736;-80
2023/04/16 05:39:16;;;;;;;55.45;27.17;;;9.40;99.90;;;;;;6094918;23;92412;-79
2023/04/16 05:41:43;;;;;;;43.42;26.13;;;9.50;99.90;;;;;;6094736;23;92905;-80
2023/04/16 05:44:09;;;;;;;41.42;25.42;;;9.50;99.90;;;;;;6094876;23;92676;-79
2023/04/16 05:46:36;;;;;;;49.47;25.45;;;9.60;99.90;;;;;;6094858;23;92301;-80
2023/04/16 05:49:03;;;;;;;46.33;25.45;;;9.70;99.90;;;;;;6094491;23;92494;-80
2023/04/16 05:51:31;;;;;;;44.08;24.65;;;9.70;99.90;;;;;;6093274;23;95470;-79
2023/04/16 05:53:58;;;;;;;50.38;25.08;;;9.70;99.90;;;;;;6094254;23;95444;-80
2023/04/16 05:56:25;;;;;;;52.05;26.95;;;9.70;99.90;;;;;;6068850;23;92378;-80
2023/04/16 05:58:51;;;;;;;43.47;24.95;;;9.80;99.90;;;;;;6094764;23;92377;-79
2023/04/16 06:01:20;;;;;;;41.55;25.10;;;9.90;99.90;;;;;;6068876;23;93124;-79
2023/04/16 06:03:47;;;;;;;51.45;25.75;;;9.90;99.90;;;;;;6068526;23;94366;-80
2023/04/16 06:06:14;;;;;;;40.67;25.23;;;9.90;99.90;;;;;;6044311;23;92409;-80
2023/04/16 06:08:40;;;;;;;37.42;23.55;;;9.90;99.90;;;;;;6070545;23;92253;-80
2023/04/16 06:11:07;;;;;;;36.42;22.45;;;9.90;99.90;;;;;;6069442;23;93294;-80
2023/04/16 06:13:34;;;;;;;36.63;23.05;;;9.90;99.90;;;;;;6095661;23;92830;-80
2023/04/16 06:16:01;;;;;;;34.53;21.67;;;10.00;99.90;;;;;;6094164;23;94794;-80
2023/04/16 06:18:28;;;;;;;33.85;22.52;;;10.00;99.90;;;;;;6069604;23;92724;-80
2023/04/16 06:20:57;;;;;;;34.72;22.88;;;10.00;99.90;;;;;;6069489;23;95853;-80
2023/04/16 06:23:24;;;;;;;34.15;23.00;;;10.00;99.90;;;;;;6069182;23;96864;-79
2023/04/16 06:25:51;;;;;;;42.53;23.83;;;10.00;99.90;;;;;;6070226;23;92861;-80
2023/04/16 06:28:18;;;;;;;36.65;24.17;;;10.10;99.90;;;;;;6045154;23;92433;-80
2023/04/16 06:30:46;;;;;;;39.03;24.77;;;10.10;99.90;;;;;;6068953;23;95675;-80
2023/04/16 06:33:13;;;;;;;32.60;24.02;;;10.20;99.90;;;;;;6070167;23;93007;-79
2023/04/16 06:35:40;;;;;;;35.55;24.35;;;10.20;99.90;;;;;;6095812;23;92418;-80
2023/04/16 06:38:06;;;;;;;34.22;22.65;;;10.30;99.90;;;;;;6044998;23;92536;-80
2023/04/16 06:40:35;;;;;;;40.15;25.23;;;10.30;99.90;;;;;;6093983;23;95473;-79
2023/04/16 06:43:02;;;;;;;38.67;23.38;;;10.30;99.90;;;;;;6095143;23;94452;-79
2023/04/16 06:45:29;;;;;;;37.17;23.65;;;10.30;99.90;;;;;;6069381;23;92470;-79
2023/04/16 06:47:57;;;;;;;38.38;22.98;;;10.30;99.90;;;;;;6045278;23;92550;-80
2023/04/16 06:50:27;;;;;;;40.25;23.80;;;10.30;99.90;;;;;;6069560;23;93223;-80
2023/04/16 06:52:54;;;;;;;36.50;23.13;;;10.20;99.90;;;;;;6095435;23;92943;-80
2023/04/16 06:55:21;;;;;;;36.20;22.45;;;10.20;99.90;;;;;;6095390;23;92390;-80
2023/04/16 06:57:48;;;;;;;39.97;24.00;;;10.20;99.90;;;;;;6045737;23;91770;-79
2023/04/16 07:00:15;;;;;;;40.30;25.65;;;10.20;99.90;;;;;;6094939;23;98701;-79
2023/04/16 07:02:42;;;;;;;40.83;24.63;;;10.30;99.90;;;;;;6021338;23;94140;-80
2023/04/16 07:05:09;;;;;;;37.00;23.88;;;10.30;99.90;;;;;;6093592;23;94821;-79
2023/04/16 07:07:36;;;;;;;41.78;25.00;;;10.30;99.90;;;;;;6021072;23;92563;-79
2023/04/16 07:10:04;;;;;;;37.15;22.85;;;10.30;99.90;;;;;;6044212;23;96367;-79
2023/04/16 07:12:32;;;;;;;39.28;24.17;;;10.30;99.90;;;;;;6044886;23;95921;-80
2023/04/16 07:14:59;;;;;;;40.03;23.15;;;10.30;99.90;;;;;;6069730;23;92463;-79
2023/04/16 07:17:26;;;;;;;40.33;23.80;;;10.30;99.90;;;;;;6095208;23;92401;-80
2023/04/16 07:19:52;;;;;;;38.20;25.92;;;10.30;99.90;;;;;;6069480;23;93192;-79
2023/04/16 07:22:19;;;;;;;36.25;24.23;;;10.30;99.90;;;;;;6069212;23;95646;-79
2023/04/16 07:24:46;;;;;;;41.83;24.17;;;10.40;99.90;;;;;;6095501;23;92318;-80
2023/04/16 07:27:13;;;;;;;43.65;24.10;;;10.50;99.90;;;;;;6095311;23;92424;-79
2023/04/16 07:29:40;;;;;;;38.65;24.23;;;10.60;99.90;;;;;;6067354;23;99287;-79
2023/04/16 07:32:07;;;;;;;39.05;23.05;;;10.70;99.90;;;;;;6068501;23;96607;-80
2023/04/16 07:34:34;;;;;;;35.28;22.00;;;10.70;99.90;;;;;;6069661;23;92435;-79
2023/04/16 07:37:01;;;;;;;37.55;23.52;;;10.80;99.90;;;;;;6093193;23;103126;-79
2023/04/16 07:39:28;;;;;;;39.78;23.35;;;10.90;99.90;;;;;;6069267;23;93012;-80
2023/04/16 07:41:55;;;;;;;30.73;19.45;;;10.90;99.90;;;;;;6095255;23;92929;-80
2023/04/16 07:44:22;;;;;;;37.47;22.45;;;11.00;99.90;;;;;;6095198;23;92429;-80
2023/04/16 07:46:49;;;;;;;35.80;22.45;;;11.10;99.90;;;;;;6095959;23;91718;-80
2023/04/16 07:49:15;;;;;;;36.60;21.90;;;11.10;99.90;;;;;;6068530;23;95710;-79
2023/04/16 07:51:42;;;;;;;35.30;19.83;;;11.10;99.90;;;;;;6069373;23;92992;-80
2023/04/16 07:54:09;;;;;;;39.55;22.80;;;11.10;99.90;;;;;;6093690;23;94759;-80
2023/04/16 07:56:36;;;;;;;40.55;22.25;;;11.10;99.90;;;;;;6069666;23;92456;-80
2023/04/16 07:59:03;;;;;;;36.25;21.65;;;11.10;99.90;;;;;;6095197;23;93068;-80
2023/04/16 08:01:44;;;;;;;35.20;20.25;;;11.20;99.90;;;;;;6069021;23;94211;-80
2023/04/16 08:04:12;;;;;;;45.92;23.08;;;11.10;99.90;;;;;;6094955;23;92472;-80
2023/04/16 08:06:40;;;;;;;41.05;22.77;;;11.20;99.90;;;;;;6095377;23;92331;-80
2023/04/16 08:09:07;;;;;;;37.88;21.27;;;11.30;99.90;;;;;;6069267;23;93349;-80
2023/04/16 08:11:34;;;;;;;40.45;21.55;;;11.40;99.90;;;;;;6095282;23;92884;-80
2023/04/16 08:14:01;;;;;;;36.65;18.50;;;11.60;99.90;;;;;;6069327;23;92458;-80
2023/04/16 08:16:28;;;;;;;34.90;21.60;;;11.70;99.90;;;;;;6069164;23;92474;-80
2023/04/16 08:18:55;;;;;;;32.83;19.88;;;11.90;99.90;;;;;;6067250;23;98078;-80
2023/04/16 08:21:21;;;;;;;33.85;21.58;;;12.10;99.90;;;;;;6094938;23;95447;-80
2023/04/16 08:23:48;;;;;;;30.38;18.80;;;12.30;99.90;;;;;;6069024;23;92446;-80
2023/04/16 08:26:16;;;;;;;29.73;19.58;;;12.50;99.90;;;;;;6044524;23;92576;-80
2023/04/16 08:28:43;;;;;;;31.58;18.58;;;12.80;99.90;;;;;;6094652;23;93133;-80
2023/04/16 08:31:10;;;;;;;21.92;14.95;;;13.00;99.90;;;;;;6094259;23;92950;-80
2023/04/16 08:33:37;;;;;;;29.88;18.05;;;13.20;99.90;;;;;;6069394;23;92451;-80
2023/04/16 08:36:04;;;;;;;27.67;17.25;;;13.40;99.90;;;;;;6095658;23;91697;-80
2023/04/16 08:38:31;;;;;;;26.30;17.38;;;13.50;99.90;;;;;;6094931;23;93233;-80
2023/04/16 08:41:02;;;;;;;26.77;18.25;;;13.60;99.90;;;;;;6095148;23;93079;-80
2023/04/16 08:43:33;;;;;;;25.50;17.85;;;13.80;99.90;;;;;;6067212;23;94824;-80
2023/04/16 08:46:00;;;;;;;25.17;15.45;;;13.90;99.90;;;;;;6069243;23;92498;-80
2023/04/16 08:48:32;;;;;;;21.02;16.40;;;14.10;99.90;;;;;;6068600;23;93312;-80
2023/04/16 08:51:00;;;;;;;24.67;17.75;;;14.20;99.90;;;;;;6069301;23;93142;-80
2023/04/16 08:53:51;;;;;;;23.42;16.92;;;14.30;99.90;;;;;;6068465;23;92375;-80
2023/04/16 08:56:21;;;;;;;23.30;15.68;;;14.50;99.90;;;;;;6069262;23;92478;-80
2023/04/16 08:58:50;;;;;;;20.42;16.65;;;14.50;99.90;;;;;;6094976;23;93292;-80
2023/04/16 09:01:18;;;;;;;23.33;16.55;;;14.60;99.90;;;;;;6094985;23;92787;-80
2023/04/16 09:03:47;;;;;;;26.33;16.88;;;14.90;99.90;;;;;;6069347;23;92859;-80
2023/04/16 09:06:15;;;;;;;25.85;16.80;;;15.10;99.90;;;;;;6095108;23;92399;-80
2023/04/16 09:08:46;;;;;;;21.15;14.98;;;15.20;99.90;;;;;;6067672;23;95611;-80
2023/04/16 09:11:16;;;;;;;23.15;16.95;;;15.20;99.90;;;;;;6044817;23;98083;-80
2023/04/16 09:13:45;;;;;;;25.20;16.65;;;15.30;99.90;;;;;;6095044;23;92411;-80
2023/04/16 09:16:13;;;;;;;22.38;17.17;;;15.50;99.90;;;;;;6094902;23;92763;-80
2023/04/16 09:18:40;;;;;;;21.35;16.13;;;15.70;99.90;;;;;;6094626;23;93142;-80
2023/04/16 09:21:12;;;;;;;22.75;16.58;;;15.80;99.90;;;;;;6068501;23;95674;-80
2023/04/16 09:23:39;;;;;;;23.10;17.23;;;15.90;99.90;;;;;;6068868;23;92386;-80
2023/04/16 09:26:06;;;;;;;21.08;17.15;;;16.00;99.90;;;;;;6095579;23;92200;-80
2023/04/16 09:28:47;;;;;;;25.30;17.15;;;16.00;99.90;;;;;;6094678;23;93340;-80
2023/04/16 09:31:16;;;;;;;19.52;15.25;;;16.40;99.90;;;;;;6094028;23;92874;-80
2023/04/16 09:34:06;;;;;;;18.77;15.07;;;16.40;99.90;;;;;;6067519;23;95446;-80
2023/04/16 09:36:35;;;;;;;19.58;14.52;;;16.40;99.90;;;;;;6068618;23;92406;-80
2023/04/16 09:39:02;;;;;;;23.08;15.57;;;16.30;99.90;;;;;;6094830;23;93398;-80
2023/04/16 09:41:32;;;;;;;19.95;16.77;;;16.30;99.90;;;;;;6044055;23;95372;-80
2023/04/16 09:44:00;;;;;;;18.88;14.80;;;16.40;99.90;;;;;;6044250;23;92434;-80
2023/04/16 09:46:34;;;;;;;21.70;15.15;;;16.40;99.90;;;;;;6068284;23;92554;-80
2023/04/16 09:49:07;;;;;;;18.73;15.75;;;16.50;99.90;;;;;;6044245;23;97426;-80
2023/04/16 09:51:40;;;;;;;19.02;15.70;;;16.40;99.90;;;;;;6094940;23;93450;-80
2023/04/16 09:54:08;;;;;;;25.37;16.30;;;16.60;99.90;;;;;;6068547;23;92703;-80
2023/04/16 09:56:45;;;;;;;18.50;14.77;;;16.50;99.90;;;;;;6043895;23;92444;-80
2023/04/16 09:59:22;;;;;;;18.92;15.15;;;16.60;99.90;;;;;;6093161;23;95787;-80
2023/04/16 10:01:51;;;;;;;19.05;15.32;;;16.70;99.90;;;;;;6068497;23;94273;-80
2023/04/16 10:04:19;;;;;;;20.23;15.95;;;16.70;99.90;;;;;;6044132;23;93181;-80
2023/04/16 10:07:05;;;;;;;18.88;15.65;;;16.70;99.90;;;;;;6043891;23;92502;-80
2023/04/16 10:09:41;;;;;;;17.95;14.07;;;16.90;99.90;;;;;;6067962;23;95558;-80
2023/04/16 10:12:09;;;;;;;18.20;16.27;;;16.90;99.90;;;;;;6094317;23;92846;-80
2023/04/16 10:14:36;;;;;;;18.33;15.57;;;16.80;99.90;;;;;;6094494;23;92601;-80
2023/04/16 10:17:04;;;;;;;19.13;16.48;;;16.90;99.90;;;;;;6095081;23;91668;-80
2023/04/16 10:19:32;;;;;;;16.23;14.50;;;17.00;99.90;;;;;;6044791;23;92503;-80
2023/04/16 10:22:00;;;;;;;20.38;15.80;;;17.20;99.90;;;;;;6067914;23;94933;-80
2023/04/16 10:24:31;;;;;;;21.70;16.02;;;17.30;99.90;;;;;;6065372;23;94744;-80
2023/04/16 10:26:59;;;;;;;19.60;16.92;;;17.50;99.90;;;;;;6094655;23;92409;-80
2023/04/16 10:29:28;;;;;;;20.38;16.35;;;17.50;99.90;;;;;;6067650;23;106200;-80
2023/04/16 10:31:56;;;;;;;20.70;16.95;;;17.60;99.90;;;;;;6093704;23;92898;-80
2023/04/16 10:34:24;;;;;;;20.77;16.08;;;17.50;99.90;;;;;;6068584;23;92498;-80
2023/04/16 10:36:53;;;;;;;21.63;16.33;;;17.50;99.90;;;;;;6094114;23;92378;-80
2023/04/16 10:39:22;;;;;;;19.55;16.05;;;17.40;99.90;;;;;;6094195;23;93177;-80
2023/04/16 10:42:05;;;;;;;18.80;15.48;;;17.40;99.90;;;;;;6094455;23;92974;-80
2023/04/16 10:44:32;;;;;;;20.63;16.27;;;17.40;99.90;;;;;;6094090;23;92383;-80
2023/04/16 10:46:59;;;;;;;17.67;14.82;;;17.50;99.90;;;;;;6067805;23;92517;-80
2023/04/16 10:49:26;;;;;;;19.58;15.90;;;17.50;99.90;;;;;;6041993;23;98188;-80
2023/04/16 10:52:06;;;;;;;19.73;14.68;;;17.50;99.90;;;;;;6067383;23;97927;-80
2023/04/16 10:54:35;;;;;;;19.77;14.80;;;17.60;99.90;;;;;;6095563;23;92752;-80
2023/04/16 10:57:05;;;;;;;18.50;15.38;;;17.40;99.90;;;;;;6095849;23;92296;-80
2023/04/16 10:59:34;;;;;;;18.73;16.73;;;17.40;99.90;;;;;;6095210;23;92949;-80
2023/04/16 11:02:26;;;;;;;22.13;16.88;;;17.30;99.90;;;;;;6044999;23;94532;-80
2023/04/16 11:04:56;;;;;;;20.17;16.45;;;17.40;99.90;;;;;;6095472;23;92422;-80
2023/04/16 11:07:33;;;;;;;20.30;15.80;;;17.20;99.90;;;;;;6069700;23;92180;-80
2023/04/16 11:10:04;;;;;;;16.00;13.48;;;17.30;99.90;;;;;;6095401;23;93194;-80
2023/04/16 11:12:40;;;;;;;21.83;17.25;;;17.50;99.90;;;;;;6095439;23;93103;-80
2023/04/16 11:15:15;;;;;;;20.23;15.27;;;17.30;99.90;;;;;;6094295;23;95599;-80
2023/04/16 11:17:47;;;;;;;20.70;16.70;;;17.30;99.90;;;;;;6069313;23;92353;-80
2023/04/16 11:20:16;;;;;;;19.08;15.35;;;17.40;99.90;;;;;;6069224;23;95897;-80
2023/04/16 11:22:50;;;;;;;21.67;16.17;;;17.50;99.90;;;;;;6069826;23;92989;-80
2023/04/16 11:25:21;;;;;;;17.77;15.95;;;17.70;99.90;;;;;;6069352;23;92364;-80
2023/04/16 11:27:52;;;;;;;20.70;15.73;;;17.80;99.90;;;;;;6069314;23;93057;-80
2023/04/16 11:30:32;;;;;;;20.33;16.75;;;17.80;99.90;;;;;;6044750;23;96091;-80
2023/04/16 11:33:08;;;;;;;19.83;15.55;;;18.00;99.90;;;;;;6096082;23;91997;-78
2023/04/16 11:35:35;;;;;;;17.42;14.57;;;18.10;99.90;;;;;;6095539;23;92292;-78
2023/04/16 11:38:04;;;;;;;18.70;15.43;;;18.20;99.90;;;;;;6095713;23;92870;-78
2023/04/16 11:40:31;;;;;;;20.15;16.67;;;18.20;99.90;;;;;;6068484;23;95316;-78
2023/04/16 11:43:14;;;;;;;18.80;15.88;;;18.30;99.90;;;;;;6069280;23;95364;-78
2023/04/16 11:45:57;;;;;;;20.63;15.50;;;18.40;99.90;;;;;;6069388;23;92454;-78
2023/04/16 11:48:25;;;;;;;18.75;14.95;;;18.40;99.90;;;;;;6095461;23;92411;-78
2023/04/16 11:50:58;;;;;;;17.25;15.45;;;18.30;99.90;;;;;;6094941;23;92945;-78
2023/04/16 11:53:25;;;;;;;18.85;15.18;;;18.30;99.90;;;;;;6095282;23;92758;-78
2023/04/16 11:55:52;;;;;;;17.10;15.43;;;18.40;99.90;;;;;;6069024;23;92560;-78
2023/04/16 11:58:21;;;;;;;20.13;15.93;;;18.40;99.80;;;;;;6045899;23;91850;-78
2023/04/16 12:00:52;;;;;;;17.52;14.73;;;18.40;99.90;;;;;;6094882;23;93208;-78
2023/04/16 12:03:37;;;;;;;16.13;14.52;;;18.40;99.90;;;;;;6044496;23;95761;-78
2023/04/16 12:06:08;;;;;;;19.60;14.35;;;18.60;99.70;;;;;;6093927;23;94758;-78
2023/04/16 12:08:35;;;;;;;16.55;14.85;;;18.40;99.90;;;;;;6045308;23;92384;-78
2023/04/16 12:11:02;;;;;;;20.90;15.18;;;18.30;99.90;;;;;;6068670;23;95703;-78
2023/04/16 12:13:29;;;;;;;16.90;14.32;;;18.20;99.90;;;;;;6069517;23;93210;-78
2023/04/16 12:15:56;;;;;;;16.08;12.02;;;18.20;99.90;;;;;;6095020;23;92392;-78
2023/04/16 12:18:27;;;;;;;16.08;13.48;;;18.10;99.90;;;;;;6069547;23;92399;-78
2023/04/16 12:20:54;;;;;;;15.48;13.05;;;18.10;99.90;;;;;;6044539;23;96175;-78
2023/04/16 12:23:33;;;;;;;19.15;13.40;;;17.80;99.90;;;;;;6095577;23;93134;-78
2023/04/16 12:26:09;;;;;;;19.10;14.27;;;17.90;99.90;;;;;;6068728;23;93260;-78
2023/04/16 12:28:37;;;;;;;19.45;14.82;;;17.90;99.90;;;;;;6095414;23;92758;-78
2023/04/16 12:31:05;;;;;;;18.25;12.57;;;17.90;99.90;;;;;;6042982;23;98339;-78
2023/04/16 12:33:32;;;;;;;19.35;13.73;;;17.80;99.90;;;;;;6094935;23;97156;-78
2023/04/16 12:36:00;;;;;;;21.25;15.30;;;17.90;99.90;;;;;;6094967;23;92312;-78
2023/04/16 12:38:27;;;;;;;18.40;14.48;;;17.90;99.90;;;;;;6095308;23;92412;-78